Time;durP1;ratioP1;P1;durP2;ratioP2;P2;SDS_P1;SDS_P2;PMS_P1;PMS_P2;Temp;Humidity;BMP_temperature;BMP_pressure;BME280_temperature;BME280_humidity;BME280_pressure;Samples;Min_cycle;Max_cycle;Signal;HPM_P1;HPM_P2
2024/02/02 00:02:15;;;;;;;15.57;3.00;;;6.70;99.90;;;;;;6336827;22;20006;-82
2024/02/02 00:04:40;;;;;;;20.17;2.20;;;6.70;99.90;;;;;;6334783;22;20003;-84
2024/02/02 00:07:06;;;;;;;21.42;2.17;;;6.80;99.90;;;;;;6335800;22;20334;-81
2024/02/02 00:09:32;;;;;;;18.58;2.88;;;6.80;99.90;;;;;;6338475;22;20075;-81
2024/02/02 00:11:57;;;;;;;24.67;2.10;;;6.80;99.90;;;;;;6310825;22;20013;-82
2024/02/02 00:14:25;;;;;;;19.05;2.40;;;6.90;99.90;;;;;;6338005;22;20068;-81
2024/02/02 00:16:50;;;;;;;11.35;2.65;;;6.90;99.90;;;;;;6335953;22;20003;-86
2024/02/02 00:19:17;;;;;;;12.05;1.92;;;6.90;99.90;;;;;;6340425;22;20350;-82
2024/02/02 00:21:43;;;;;;;10.25;1.75;;;6.90;99.90;;;;;;6342019;22;20053;-82
2024/02/02 00:24:09;;;;;;;12.45;1.73;;;7.00;99.90;;;;;;6369431;22;20006;-83
2024/02/02 00:26:34;;;;;;;13.90;2.10;;;7.00;99.90;;;;;;6369411;22;19994;-81
2024/02/02 00:29:00;;;;;;;16.52;2.65;;;7.10;99.90;;;;;;6369636;22;20010;-81
2024/02/02 00:31:25;;;;;;;15.88;1.88;;;7.10;99.90;;;;;;6369448;22;20422;-81
2024/02/02 00:33:51;;;;;;;10.98;1.77;;;7.10;99.90;;;;;;6341474;22;20006;-81
2024/02/02 00:36:17;;;;;;;9.38;2.45;;;7.20;99.90;;;;;;6341625;22;20010;-82
2024/02/02 00:38:43;;;;;;;10.88;1.90;;;7.10;99.90;;;;;;6369122;22;20081;-84
2024/02/02 00:41:11;;;;;;;15.23;3.28;;;7.10;99.90;;;;;;6341598;22;20002;-84
2024/02/02 00:43:37;;;;;;;11.48;2.10;;;7.10;99.90;;;;;;6371370;22;20066;-81
2024/02/02 00:46:03;;;;;;;12.88;2.25;;;7.10;99.90;;;;;;6369556;22;20499;-82
2024/02/02 00:48:29;;;;;;;11.80;1.70;;;7.20;99.90;;;;;;6369949;22;20021;-81
2024/02/02 00:50:54;;;;;;;13.82;2.25;;;7.30;99.90;;;;;;6342211;22;19994;-83
2024/02/02 00:53:20;;;;;;;13.30;1.55;;;7.30;99.90;;;;;;6371981;22;19995;-82
2024/02/02 00:55:45;;;;;;;11.50;1.90;;;7.30;99.90;;;;;;6372104;22;19998;-82
2024/02/02 00:58:11;;;;;;;13.02;1.80;;;7.30;99.90;;;;;;6371336;22;20422;-81
2024/02/02 01:00:38;;;;;;;10.15;1.83;;;7.30;99.90;;;;;;6371296;22;20018;-82
2024/02/02 01:03:04;;;;;;;12.60;2.13;;;7.40;99.90;;;;;;6371042;22;20016;-83
2024/02/02 01:05:31;;;;;;;13.20;2.15;;;7.30;99.90;;;;;;6343250;22;19998;-81
2024/02/02 01:07:58;;;;;;;9.63;1.70;;;7.30;99.90;;;;;;6371047;22;20415;-81
2024/02/02 01:10:24;;;;;;;5.95;1.42;;;7.30;99.90;;;;;;6342935;22;20009;-81
2024/02/02 01:12:49;;;;;;;11.88;1.55;;;7.30;99.90;;;;;;6342718;22;20006;-82
2024/02/02 01:15:16;;;;;;;16.30;1.85;;;7.30;99.90;;;;;;6370835;22;20077;-81
2024/02/02 01:17:45;;;;;;;11.23;2.50;;;7.30;99.90;;;;;;6370571;22;19998;-82
2024/02/02 01:20:13;;;;;;;10.13;1.90;;;7.30;99.90;;;;;;6341785;22;20010;-82
2024/02/02 01:22:40;;;;;;;11.77;1.63;;;7.20;99.90;;;;;;6342237;22;20002;-83
2024/02/02 01:25:07;;;;;;;9.27;1.92;;;7.20;99.90;;;;;;6342823;22;20121;-82
2024/02/02 01:27:33;;;;;;;11.80;2.10;;;7.20;99.90;;;;;;6342580;22;20349;-81
2024/02/02 01:29:59;;;;;;;10.15;1.88;;;7.20;99.90;;;;;;6342693;22;20002;-81
2024/02/02 01:32:25;;;;;;;16.02;2.78;;;7.20;99.90;;;;;;6342997;22;20003;-82
2024/02/02 01:34:51;;;;;;;9.57;1.65;;;7.20;99.90;;;;;;6370676;22;20421;-82
2024/02/02 01:37:17;;;;;;;7.90;1.73;;;7.20;99.90;;;;;;6342233;22;20333;-84
2024/02/02 01:39:43;;;;;;;13.20;1.77;;;7.20;99.90;;;;;;6342039;22;20026;-82
2024/02/02 01:42:08;;;;;;;8.60;1.50;;;7.20;99.90;;;;;;6370647;22;20002;-82
2024/02/02 01:44:34;;;;;;;14.57;2.00;;;7.20;99.90;;;;;;6370094;22;20440;-82
2024/02/02 01:47:00;;;;;;;8.18;2.22;;;7.20;99.90;;;;;;6370562;22;20002;-81
2024/02/02 01:49:26;;;;;;;8.82;1.90;;;7.30;99.90;;;;;;6370982;22;20017;-82
2024/02/02 01:51:56;;;;;;;5.35;1.70;;;7.30;99.90;;;;;;6342459;22;20394;-82
2024/02/02 01:54:22;;;;;;;9.63;1.33;;;7.30;99.90;;;;;;6342259;22;20010;-82
2024/02/02 01:56:48;;;;;;;10.05;2.65;;;7.30;99.90;;;;;;6342446;22;20005;-82
2024/02/02 01:59:14;;;;;;;9.15;2.60;;;7.40;99.90;;;;;;6371235;22;19995;-80
2024/02/02 02:01:43;;;;;;;8.00;2.28;;;7.40;99.90;;;;;;6343415;22;20437;-81
2024/02/02 02:04:09;;;;;;;8.73;1.70;;;7.40;99.90;;;;;;6343233;22;19998;-81
2024/02/02 02:06:35;;;;;;;6.25;2.05;;;7.40;99.90;;;;;;6343150;22;20050;-83
2024/02/02 02:09:02;;;;;;;4.10;1.50;;;7.40;99.90;;;;;;6342822;22;20101;-81
2024/02/02 02:11:28;;;;;;;6.70;1.83;;;7.40;99.90;;;;;;6342765;22;20002;-85
2024/02/02 02:13:54;;;;;;;3.50;1.70;;;7.40;99.90;;;;;;6343004;22;20007;-81
2024/02/02 02:16:21;;;;;;;4.10;2.80;;;7.40;99.90;;;;;;6342978;22;19998;-81
2024/02/02 02:18:47;;;;;;;6.13;2.35;;;7.50;99.90;;;;;;6342878;22;20011;-82
2024/02/02 02:21:28;;;;;;;6.65;1.80;;;7.50;99.90;;;;;;6342517;22;20090;-83
2024/02/02 02:23:56;;;;;;;2.17;1.77;;;7.50;99.90;;;;;;6342546;22;20097;-82
2024/02/02 02:26:22;;;;;;;7.47;2.00;;;7.60;99.90;;;;;;6342729;22;20002;-81
2024/02/02 02:28:49;;;;;;;7.05;2.33;;;7.60;99.90;;;;;;6342559;22;20014;-81
2024/02/02 02:31:15;;;;;;;5.45;3.55;;;7.60;99.90;;;;;;6342745;22;20030;-83
2024/02/02 02:33:43;;;;;;;10.32;4.00;;;7.60;99.90;;;;;;6342347;22;20030;-82
2024/02/02 02:36:11;;;;;;;6.68;3.88;;;7.60;99.90;;;;;;6340422;22;20007;-83
2024/02/02 02:38:36;;;;;;;4.72;3.17;;;7.60;99.90;;;;;;6339836;22;20037;-86
2024/02/02 02:41:02;;;;;;;4.88;2.60;;;7.70;99.90;;;;;;6339457;22;20003;-81
2024/02/02 02:43:29;;;;;;;5.97;2.55;;;7.70;99.90;;;;;;6340487;22;20017;-82
2024/02/02 02:45:55;;;;;;;2.38;2.10;;;7.70;99.90;;;;;;6368906;22;20478;-83
2024/02/02 02:48:21;;;;;;;2.55;2.10;;;7.80;99.90;;;;;;6368519;22;20006;-84
2024/02/02 02:50:47;;;;;;;2.40;1.60;;;7.90;99.90;;;;;;6340541;22;20006;-86
2024/02/02 02:53:13;;;;;;;2.30;1.85;;;7.80;99.90;;;;;;6368853;22;20002;-81
2024/02/02 02:55:38;;;;;;;5.75;1.80;;;7.90;99.90;;;;;;6342319;22;20386;-85
2024/02/02 02:58:04;;;;;;;2.85;1.50;;;7.90;99.90;;;;;;6341079;22;20006;-82
2024/02/02 03:00:31;;;;;;;3.60;2.00;;;7.90;99.90;;;;;;6341162;22;20007;-82
2024/02/02 03:03:00;;;;;;;2.63;1.60;;;7.90;99.90;;;;;;6341510;22;20009;-82
2024/02/02 03:05:28;;;;;;;2.03;1.60;;;7.90;99.90;;;;;;6342225;22;20006;-81
2024/02/02 03:07:54;;;;;;;1.50;1.40;;;7.90;99.90;;;;;;6369523;22;19998;-81
2024/02/02 03:10:25;;;;;;;1.90;1.10;;;8.00;99.90;;;;;;6370073;22;20009;-80
2024/02/02 03:12:51;;;;;;;5.57;1.63;;;8.00;99.90;;;;;;6341566;22;20005;-82
2024/02/02 03:15:18;;;;;;;2.08;1.05;;;8.00;99.90;;;;;;6369042;22;20077;-82
2024/02/02 03:17:44;;;;;;;2.30;1.10;;;8.00;99.90;;;;;;6369288;22;19998;-81
2024/02/02 03:20:11;;;;;;;1.73;1.20;;;8.00;99.90;;;;;;6369692;22;20333;-81
2024/02/02 03:22:38;;;;;;;1.10;0.90;;;8.00;99.90;;;;;;6341923;22;20438;-83
2024/02/02 03:25:07;;;;;;;2.90;1.00;;;8.00;99.90;;;;;;6369972;22;20001;-81
2024/02/02 03:27:34;;;;;;;1.50;1.00;;;8.00;99.90;;;;;;6369621;22;20077;-81
2024/02/02 03:29:59;;;;;;;1.50;1.40;;;8.00;99.90;;;;;;6341366;22;20481;-82
2024/02/02 03:32:25;;;;;;;2.47;1.17;;;8.00;99.90;;;;;;6341134;22;20006;-82
2024/02/02 03:34:51;;;;;;;1.90;1.17;;;8.00;99.90;;;;;;6342597;22;20014;-81
2024/02/02 03:37:18;;;;;;;1.52;1.10;;;8.00;99.90;;;;;;6342431;22;20007;-80
2024/02/02 03:39:45;;;;;;;2.45;1.25;;;8.00;99.90;;;;;;6370274;22;20029;-81
2024/02/02 03:42:14;;;;;;;1.55;0.88;;;8.00;99.90;;;;;;6370151;22;20077;-81
2024/02/02 03:44:40;;;;;;;1.98;0.75;;;8.00;99.90;;;;;;6369782;22;20033;-81
2024/02/02 03:47:05;;;;;;;2.15;1.00;;;8.00;99.90;;;;;;6369055;22;19995;-81
2024/02/02 03:49:34;;;;;;;1.35;1.17;;;8.00;99.90;;;;;;6341149;22;20041;-80
2024/02/02 03:52:07;;;;;;;1.45;1.20;;;8.00;99.90;;;;;;6369620;22;19994;-80
2024/02/02 03:54:33;;;;;;;2.15;1.40;;;8.10;99.90;;;;;;6341285;22;20006;-80
2024/02/02 03:56:59;;;;;;;1.58;1.38;;;8.10;99.90;;;;;;6341093;22;20082;-81
2024/02/02 03:59:24;;;;;;;2.95;1.50;;;8.10;99.90;;;;;;6368664;22;20071;-79
2024/02/02 04:01:51;;;;;;;1.15;1.05;;;8.10;99.90;;;;;;6340836;22;20053;-81
2024/02/02 04:04:17;;;;;;;1.38;0.88;;;8.10;99.90;;;;;;6341137;22;19994;-81
2024/02/02 04:06:42;;;;;;;1.73;0.70;;;8.10;99.90;;;;;;6340603;22;20009;-83
2024/02/02 04:09:08;;;;;;;1.30;1.20;;;8.10;99.90;;;;;;6341392;22;20018;-82
2024/02/02 04:11:35;;;;;;;1.55;1.40;;;8.10;99.90;;;;;;6341887;22;20002;-80
2024/02/02 04:14:01;;;;;;;1.88;1.17;;;8.10;99.90;;;;;;6369620;22;20010;-80
2024/02/02 04:16:26;;;;;;;1.75;1.58;;;8.10;99.90;;;;;;6368804;22;20333;-82
2024/02/02 04:18:52;;;;;;;1.05;1.00;;;8.10;99.90;;;;;;6341052;22;20016;-82
2024/02/02 04:21:18;;;;;;;2.25;1.27;;;8.10;99.90;;;;;;6338548;22;20445;-81
2024/02/02 04:23:43;;;;;;;1.80;1.17;;;8.10;99.90;;;;;;6309725;22;20029;-81
2024/02/02 04:26:09;;;;;;;4.43;1.30;;;8.10;99.90;;;;;;6337735;22;20374;-81
2024/02/02 04:28:35;;;;;;;1.65;1.00;;;8.10;99.90;;;;;;6310576;22;20019;-81
2024/02/02 04:31:01;;;;;;;1.15;1.00;;;8.10;99.90;;;;;;6310160;22;20434;-83
2024/02/02 04:33:26;;;;;;;1.77;0.90;;;8.10;99.90;;;;;;6337561;22;20009;-81
2024/02/02 04:35:52;;;;;;;1.13;0.73;;;8.10;99.90;;;;;;6337441;22;20066;-81
2024/02/02 04:38:18;;;;;;;0.93;0.70;;;8.10;99.90;;;;;;6309087;22;20488;-80
2024/02/02 04:40:45;;;;;;;0.55;0.43;;;8.10;99.90;;;;;;6310112;22;19999;-81
2024/02/02 04:43:10;;;;;;;0.50;0.50;;;8.10;99.90;;;;;;6337703;22;20007;-83
2024/02/02 04:45:36;;;;;;;1.85;0.70;;;8.10;99.90;;;;;;6309551;22;20268;-81
2024/02/02 04:48:03;;;;;;;1.73;0.50;;;8.10;99.90;;;;;;6336970;22;20438;-81
2024/02/02 04:50:29;;;;;;;1.30;0.40;;;8.10;99.90;;;;;;6309338;22;20007;-82
2024/02/02 04:52:54;;;;;;;0.93;0.45;;;8.10;99.90;;;;;;6308794;22;20485;-84
2024/02/02 04:55:20;;;;;;;2.92;0.47;;;8.10;99.90;;;;;;6309540;22;20422;-81
2024/02/02 04:57:46;;;;;;;0.50;0.30;;;8.10;99.90;;;;;;6309945;22;20005;-82
2024/02/02 05:00:12;;;;;;;0.98;0.30;;;8.10;99.90;;;;;;6309742;22;20007;-82
2024/02/02 05:02:38;;;;;;;0.60;0.40;;;8.10;99.90;;;;;;6309005;22;20086;-82
2024/02/02 05:05:05;;;;;;;1.65;0.40;;;8.10;99.90;;;;;;6308795;22;20080;-81
2024/02/02 05:07:31;;;;;;;0.30;0.25;;;8.10;99.90;;;;;;6336339;22;20003;-81
2024/02/02 05:09:57;;;;;;;0.52;0.40;;;8.00;99.90;;;;;;6336778;22;20003;-82
2024/02/02 05:12:23;;;;;;;0.35;0.30;;;8.00;99.90;;;;;;6337403;22;20006;-84
2024/02/02 05:14:49;;;;;;;1.63;0.30;;;7.90;99.90;;;;;;6337837;22;20009;-81
2024/02/02 05:17:15;;;;;;;2.50;0.63;;;7.90;99.90;;;;;;6309779;22;20003;-81
2024/02/02 05:19:41;;;;;;;0.93;0.60;;;7.80;99.90;;;;;;6308749;22;20038;-82
2024/02/02 05:22:07;;;;;;;2.78;0.70;;;7.80;99.90;;;;;;6309521;22;20072;-84
2024/02/02 05:24:34;;;;;;;1.13;1.00;;;7.80;99.90;;;;;;6309832;22;20011;-82
2024/02/02 05:26:59;;;;;;;0.57;0.38;;;7.90;99.90;;;;;;6309113;22;20322;-81
2024/02/02 05:29:25;;;;;;;0.68;0.68;;;7.90;99.90;;;;;;6336193;22;20025;-82
2024/02/02 05:31:51;;;;;;;0.40;0.30;;;7.90;99.90;;;;;;6336839;22;19995;-83
2024/02/02 05:34:16;;;;;;;0.50;0.30;;;7.90;99.90;;;;;;6309919;22;20045;-81
2024/02/02 05:36:42;;;;;;;0.55;0.55;;;7.90;99.90;;;;;;6339156;22;20066;-81
2024/02/02 05:39:09;;;;;;;0.50;0.40;;;7.90;99.90;;;;;;6339131;22;20014;-82
2024/02/02 05:41:34;;;;;;;0.35;0.35;;;8.00;99.90;;;;;;6338525;22;20003;-86
2024/02/02 05:44:00;;;;;;;0.30;0.30;;;8.00;99.90;;;;;;6338191;22;20048;-82
2024/02/02 05:46:26;;;;;;;0.50;0.40;;;8.00;99.90;;;;;;6338759;22;20003;-81
2024/02/02 05:48:51;;;;;;;1.42;0.60;;;8.00;99.90;;;;;;6338606;22;20433;-84
2024/02/02 05:51:17;;;;;;;3.28;0.50;;;8.00;99.90;;;;;;6310489;22;20006;-82
2024/02/02 05:53:43;;;;;;;0.63;0.45;;;8.00;99.90;;;;;;6310891;22;20007;-84
2024/02/02 05:56:08;;;;;;;1.02;0.40;;;8.10;99.90;;;;;;6339055;22;20006;-81
2024/02/02 05:58:34;;;;;;;6.55;0.50;;;8.10;99.90;;;;;;6338663;22;20003;-81
2024/02/02 06:01:00;;;;;;;4.85;1.05;;;8.10;99.90;;;;;;6338225;22;20021;-82
2024/02/02 06:03:25;;;;;;;0.75;0.50;;;8.10;99.90;;;;;;6338109;22;20082;-81
2024/02/02 06:05:51;;;;;;;2.75;0.57;;;8.20;99.90;;;;;;6337881;22;20029;-82
2024/02/02 06:08:17;;;;;;;0.30;0.30;;;8.20;99.90;;;;;;6338258;22;20089;-86
2024/02/02 06:10:42;;;;;;;0.30;0.25;;;8.20;99.90;;;;;;6338516;22;20003;-81
2024/02/02 06:13:08;;;;;;;0.45;0.20;;;8.20;99.90;;;;;;6338777;22;20100;-80
2024/02/02 06:15:34;;;;;;;0.50;0.43;;;8.20;99.90;;;;;;6310409;22;20038;-82
2024/02/02 06:18:00;;;;;;;0.40;0.40;;;8.10;99.90;;;;;;6309904;22;20089;-84
2024/02/02 06:20:26;;;;;;;0.68;0.52;;;8.10;99.90;;;;;;6336353;22;20065;-86
2024/02/02 06:22:52;;;;;;;0.60;0.50;;;8.10;99.90;;;;;;6337689;22;20003;-82
2024/02/02 06:25:18;;;;;;;1.02;0.93;;;8.20;99.90;;;;;;6329946;22;20383;-83
2024/02/02 06:27:44;;;;;;;1.30;1.20;;;8.20;99.90;;;;;;6335902;22;20007;-82
2024/02/02 06:30:11;;;;;;;1.90;1.80;;;8.20;99.90;;;;;;6336646;22;20068;-80
2024/02/02 06:32:38;;;;;;;4.03;3.10;;;8.20;99.90;;;;;;6335680;22;19999;-82
2024/02/02 06:35:05;;;;;;;2.30;2.10;;;8.20;99.90;;;;;;6336995;22;20010;-80
2024/02/02 06:37:32;;;;;;;1.73;1.63;;;8.20;99.90;;;;;;6335697;22;20074;-83
2024/02/02 06:39:58;;;;;;;4.68;2.97;;;8.30;99.90;;;;;;6337666;22;20041;-80
2024/02/02 06:42:25;;;;;;;3.00;2.80;;;8.30;99.90;;;;;;6337960;22;20026;-81
2024/02/02 06:44:51;;;;;;;2.90;2.70;;;8.30;99.90;;;;;;6335594;22;20029;-82
2024/02/02 06:47:17;;;;;;;3.05;2.85;;;8.40;99.90;;;;;;6334900;22;20007;-85
2024/02/02 06:49:44;;;;;;;4.20;3.20;;;8.40;99.90;;;;;;6336702;22;20063;-86
2024/02/02 06:52:10;;;;;;;3.30;3.00;;;8.40;99.90;;;;;;6336169;22;20029;-84
2024/02/02 06:54:36;;;;;;;3.88;3.47;;;8.40;99.90;;;;;;6309097;22;20085;-86
2024/02/02 06:57:02;;;;;;;4.97;3.53;;;8.50;99.90;;;;;;6337072;22;19995;-81
2024/02/02 06:59:28;;;;;;;5.03;4.57;;;8.50;99.90;;;;;;6308790;22;20034;-82
2024/02/02 07:01:55;;;;;;;5.65;5.10;;;8.50;99.90;;;;;;6307663;22;20073;-85
2024/02/02 07:04:21;;;;;;;5.95;5.35;;;8.50;99.90;;;;;;6307460;22;20029;-82
2024/02/02 07:06:48;;;;;;;7.68;6.53;;;8.50;99.90;;;;;;6307593;22;20006;-82
2024/02/02 07:09:21;;;;;;;7.30;6.63;;;8.50;99.90;;;;;;6336035;22;20030;-81
2024/02/02 07:11:59;;;;;;;8.02;7.22;;;8.50;99.90;;;;;;6336794;22;20018;-84
2024/02/02 07:14:33;;;;;;;7.90;7.10;;;8.50;99.90;;;;;;6308222;22;20007;-81
2024/02/02 07:16:59;;;;;;;8.20;7.40;;;8.50;99.90;;;;;;6335991;22;20076;-82
2024/02/02 07:19:39;;;;;;;9.60;8.38;;;8.50;99.90;;;;;;6335942;22;19999;-84
2024/02/02 07:22:26;;;;;;;5.38;4.88;;;8.50;99.90;;;;;;6308205;22;20485;-84
2024/02/02 07:24:52;;;;;;;9.43;8.48;;;8.50;99.90;;;;;;6337524;22;20082;-84
2024/02/02 07:27:42;;;;;;;9.07;7.93;;;8.50;99.90;;;;;;6337799;22;20042;-82
2024/02/02 07:30:34;;;;;;;6.93;6.22;;;8.50;99.90;;;;;;6310284;22;20438;-83
2024/02/02 07:33:00;;;;;;;8.95;7.97;;;8.50;99.90;;;;;;6307603;22;20512;-81
2024/02/02 07:35:34;;;;;;;7.13;6.43;;;8.50;99.90;;;;;;6310731;22;20003;-81
2024/02/02 07:38:07;;;;;;;5.18;4.68;;;8.50;99.90;;;;;;6310404;22;20053;-81
2024/02/02 07:41:12;;;;;;;6.47;5.75;;;8.50;99.90;;;;;;6308829;22;20024;-82
2024/02/02 07:43:38;;;;;;;6.95;3.95;;;8.50;99.90;;;;;;6308672;22;20147;-81
2024/02/02 07:46:05;;;;;;;5.68;4.00;;;8.40;99.90;;;;;;6309445;22;20390;-82
2024/02/02 07:48:33;;;;;;;3.92;3.58;;;8.40;99.90;;;;;;6283352;22;20019;-83
2024/02/02 07:50:59;;;;;;;6.38;4.70;;;8.40;99.90;;;;;;6309731;22;20006;-83
2024/02/02 07:53:25;;;;;;;5.65;4.78;;;8.40;99.90;;;;;;6309791;22;20095;-85
2024/02/02 07:55:51;;;;;;;5.93;5.25;;;8.40;99.90;;;;;;6309863;22;20070;-81
2024/02/02 07:58:20;;;;;;;5.75;5.15;;;8.40;99.90;;;;;;6309947;22;20082;-81
2024/02/02 08:00:46;;;;;;;5.65;4.60;;;8.40;99.90;;;;;;6309888;22;20002;-81
2024/02/02 08:03:12;;;;;;;7.93;5.63;;;8.40;99.90;;;;;;6309448;22;20003;-82
2024/02/02 08:05:38;;;;;;;5.45;4.50;;;8.30;99.90;;;;;;6336998;22;20443;-82
2024/02/02 08:08:07;;;;;;;4.57;4.07;;;8.30;99.90;;;;;;6335884;22;20031;-81
2024/02/02 08:10:34;;;;;;;6.28;4.93;;;8.30;99.90;;;;;;6336591;22;20006;-81
2024/02/02 08:13:00;;;;;;;5.43;4.40;;;8.30;99.90;;;;;;6336621;22;20013;-81
2024/02/02 08:15:26;;;;;;;6.78;5.20;;;8.20;99.90;;;;;;6335597;22;20010;-81
2024/02/02 08:17:52;;;;;;;6.38;5.07;;;8.20;99.90;;;;;;6337943;22;20074;-81
2024/02/02 08:20:19;;;;;;;4.38;3.90;;;8.20;99.90;;;;;;6337067;22;20022;-81
2024/02/02 08:22:46;;;;;;;5.10;4.40;;;8.10;99.90;;;;;;6337135;22;20006;-82
2024/02/02 08:25:12;;;;;;;4.68;4.00;;;8.10;99.90;;;;;;6309794;22;20010;-82
2024/02/02 08:27:38;;;;;;;7.10;4.15;;;8.10;99.90;;;;;;6310080;22;20010;-82
2024/02/02 08:30:08;;;;;;;6.53;4.53;;;8.10;99.90;;;;;;6309856;22;20014;-83
2024/02/02 08:32:34;;;;;;;5.63;4.25;;;8.10;99.90;;;;;;6309863;22;19999;-81
2024/02/02 08:35:01;;;;;;;6.32;4.50;;;8.10;99.90;;;;;;6310027;22;20082;-80
2024/02/02 08:37:26;;;;;;;11.30;6.78;;;8.00;99.90;;;;;;6309961;22;20007;-80
2024/02/02 08:39:53;;;;;;;4.97;3.83;;;8.00;99.90;;;;;;6309812;22;20427;-81
2024/02/02 08:42:22;;;;;;;4.03;2.40;;;8.00;99.90;;;;;;6283755;22;20031;-81
2024/02/02 08:44:49;;;;;;;3.15;2.45;;;8.00;99.90;;;;;;6309804;22;20018;-81
2024/02/02 08:47:15;;;;;;;2.47;2.08;;;8.00;99.90;;;;;;6309917;22;20019;-81
2024/02/02 08:49:59;;;;;;;2.00;1.45;;;8.00;99.90;;;;;;6309176;22;20022;-82
2024/02/02 08:52:33;;;;;;;2.10;1.30;;;8.00;99.90;;;;;;6337558;22;20014;-82
2024/02/02 08:55:17;;;;;;;1.30;1.00;;;8.00;99.90;;;;;;6337324;22;20011;-83
2024/02/02 08:58:07;;;;;;;2.35;1.10;;;8.10;99.90;;;;;;6309620;22;20003;-86
2024/02/02 09:00:41;;;;;;;1.65;1.15;;;8.10;99.90;;;;;;6309419;22;20003;-83
2024/02/02 09:03:49;;;;;;;2.95;1.10;;;8.10;99.90;;;;;;6337100;22;20380;-84
2024/02/02 09:06:17;;;;;;;1.15;0.90;;;8.10;99.90;;;;;;6316057;22;20413;-83
2024/02/02 09:08:43;;;;;;;1.38;0.70;;;8.10;99.90;;;;;;6308839;22;20019;-86
2024/02/02 09:11:21;;;;;;;0.82;0.63;;;8.20;99.90;;;;;;6311603;22;20086;-84
2024/02/02 09:13:47;;;;;;;1.75;0.50;;;8.20;99.90;;;;;;6311470;22;20469;-83
2024/02/02 09:16:18;;;;;;;2.30;0.70;;;8.30;99.90;;;;;;6311891;22;20067;-82
2024/02/02 09:19:04;;;;;;;0.57;0.30;;;8.30;99.90;;;;;;6311802;22;20383;-79
2024/02/02 09:21:42;;;;;;;0.38;0.30;;;8.30;99.90;;;;;;6307350;22;20018;-82
2024/02/02 09:24:29;;;;;;;0.57;0.35;;;8.30;99.90;;;;;;6307781;22;20011;-81
2024/02/02 09:26:57;;;;;;;0.50;0.20;;;8.40;99.90;;;;;;6281139;22;20019;-82
2024/02/02 09:29:23;;;;;;;0.60;0.40;;;8.40;99.90;;;;;;6307983;22;20419;-82
2024/02/02 09:31:49;;;;;;;0.30;0.30;;;8.40;99.90;;;;;;6307615;22;20026;-82
2024/02/02 09:34:24;;;;;;;0.20;0.20;;;8.50;99.90;;;;;;6307751;22;20078;-83
2024/02/02 09:36:51;;;;;;;0.20;0.20;;;8.50;99.90;;;;;;6280276;22;20010;-82
2024/02/02 09:39:48;;;;;;;0.55;0.40;;;8.50;99.90;;;;;;6307987;22;19999;-81
2024/02/02 09:42:20;;;;;;;0.40;0.30;;;8.60;99.90;;;;;;6309315;22;20054;-81
2024/02/02 09:45:00;;;;;;;0.38;0.17;;;8.60;99.90;;;;;;6280131;22;20007;-82
2024/02/02 09:47:48;;;;;;;0.88;0.30;;;8.60;99.90;;;;;;6307526;22;19999;-82
2024/02/02 09:50:32;;;;;;;1.52;0.30;;;8.60;99.90;;;;;;6307474;22;20007;-82
2024/02/02 09:53:18;;;;;;;0.47;0.20;;;8.70;99.90;;;;;;6307309;22;20012;-82
2024/02/02 09:56:17;;;;;;;2.17;0.20;;;8.70;99.90;;;;;;6279654;22;20011;-82
2024/02/02 09:58:54;;;;;;;0.52;0.28;;;8.70;99.90;;;;;;6279985;22;20426;-82
2024/02/02 10:01:50;;;;;;;1.85;0.30;;;8.80;99.90;;;;;;6280240;22;20007;-82
2024/02/02 10:04:32;;;;;;;0.30;0.20;;;8.80;99.90;;;;;;6279917;22;20008;-82
2024/02/02 10:07:20;;;;;;;0.63;0.28;;;8.90;99.90;;;;;;6279966;22;20020;-82
2024/02/02 10:10:02;;;;;;;0.20;0.10;;;8.90;99.90;;;;;;6279674;22;20018;-82
2024/02/02 10:13:12;;;;;;;1.05;0.30;;;8.90;99.90;;;;;;6279567;22;20285;-82
2024/02/02 10:16:16;;;;;;;0.10;0.10;;;9.00;99.90;;;;;;6183116;23;20207;-81
2024/02/02 10:19:13;;;;;;;0.10;0.10;;;9.00;99.90;;;;;;6157990;23;20044;-82
2024/02/02 10:21:59;;;;;;;0.17;0.10;;;9.00;99.90;;;;;;6186645;23;20091;-83
2024/02/02 10:24:29;;;;;;;0.10;0.10;;;9.00;99.90;;;;;;6211876;23;20077;-83
2024/02/02 10:26:58;;;;;;;0.93;0.10;;;9.10;99.90;;;;;;6186749;23;20004;-87
2024/02/02 10:29:47;;;;;;;0.20;0.20;;;9.10;99.90;;;;;;6187151;23;20017;-82
2024/02/02 10:32:40;;;;;;;0.10;0.10;;;9.10;99.90;;;;;;6187465;23;20008;-83
2024/02/02 10:35:39;;;;;;;0.65;0.20;;;9.10;99.90;;;;;;6212632;23;20008;-82
2024/02/02 10:38:32;;;;;;;0.45;0.20;;;9.20;99.90;;;;;;6186307;23;20064;-83
2024/02/02 10:41:01;;;;;;;0.20;0.20;;;9.20;99.90;;;;;;6186783;23;20328;-83
2024/02/02 10:43:48;;;;;;;0.15;0.15;;;9.30;99.90;;;;;;6209466;23;20015;-81
2024/02/02 10:46:38;;;;;;;0.30;0.28;;;9.40;99.90;;;;;;6186343;23;20032;-81
2024/02/02 10:49:16;;;;;;;0.30;0.30;;;9.40;99.90;;;;;;6226535;22;20345;-81
2024/02/02 10:51:51;;;;;;;0.40;0.35;;;9.40;99.90;;;;;;6335906;22;20507;-81
2024/02/02 10:54:26;;;;;;;0.30;0.20;;;9.50;99.90;;;;;;6336819;22;20013;-81
2024/02/02 10:57:04;;;;;;;0.30;0.20;;;9.50;99.90;;;;;;6337007;22;20033;-81
2024/02/02 10:59:48;;;;;;;0.20;0.20;;;9.60;99.90;;;;;;6308573;22;20002;-84
2024/02/02 11:02:31;;;;;;;0.55;0.20;;;9.70;99.90;;;;;;6308912;22;20006;-81
2024/02/02 11:05:19;;;;;;;0.43;0.20;;;9.70;99.90;;;;;;6308378;22;20052;-82
2024/02/02 11:08:06;;;;;;;0.20;0.20;;;9.80;99.90;;;;;;6307875;22;20097;-84
2024/02/02 11:10:44;;;;;;;0.28;0.20;;;9.80;99.90;;;;;;6308202;22;20081;-82
2024/02/02 11:13:13;;;;;;;0.43;0.28;;;9.80;99.90;;;;;;6309346;22;20011;-82
2024/02/02 11:16:00;;;;;;;0.55;0.10;;;9.90;99.90;;;;;;6309984;22;20003;-83
2024/02/02 11:18:38;;;;;;;0.82;0.25;;;9.90;99.90;;;;;;6338096;22;20078;-83
2024/02/02 11:21:13;;;;;;;0.65;0.38;;;10.00;99.90;;;;;;6337751;22;20011;-82
2024/02/02 11:23:53;;;;;;;0.20;0.20;;;10.10;99.90;;;;;;6337927;22;20235;-81
2024/02/02 11:26:26;;;;;;;0.95;0.20;;;10.20;99.90;;;;;;6309868;22;20033;-85
2024/02/02 11:29:02;;;;;;;0.70;0.20;;;10.40;99.90;;;;;;6337507;22;20015;-83
2024/02/02 11:31:41;;;;;;;0.65;0.20;;;10.50;99.90;;;;;;6337436;22;20033;-81
2024/02/02 11:34:30;;;;;;;0.10;0.10;;;10.70;99.90;;;;;;6310209;22;20072;-82
2024/02/02 11:37:28;;;;;;;1.20;0.30;;;10.90;99.90;;;;;;6337838;22;20002;-82
2024/02/02 11:40:01;;;;;;;0.93;0.15;;;11.10;99.90;;;;;;6337943;22;20129;-81
2024/02/02 11:42:29;;;;;;;0.93;0.20;;;11.20;99.90;;;;;;6337894;22;20003;-86
2024/02/02 11:44:57;;;;;;;0.73;0.40;;;11.40;99.90;;;;;;6337719;22;20044;-83
2024/02/02 11:47:23;;;;;;;0.28;0.22;;;11.50;99.90;;;;;;6309598;22;20018;-82
2024/02/02 11:49:58;;;;;;;0.47;0.20;;;11.60;99.90;;;;;;6309876;22;20015;-85
2024/02/02 11:52:47;;;;;;;0.30;0.30;;;11.70;99.90;;;;;;6309788;22;20003;-83
2024/02/02 11:55:18;;;;;;;1.92;0.30;;;11.90;99.90;;;;;;6337697;22;20002;-83
2024/02/02 11:57:50;;;;;;;1.55;0.20;;;12.10;99.90;;;;;;6308797;22;20073;-82
2024/02/02 12:00:43;;;;;;;0.70;0.30;;;12.40;99.90;;;;;;6309944;22;20052;-82
2024/02/02 12:03:27;;;;;;;0.30;0.30;;;12.80;99.90;;;;;;6239429;22;20384;-84
2024/02/02 12:06:11;;;;;;;0.38;0.38;;;13.10;99.90;;;;;;6309835;22;20038;-81
2024/02/02 12:09:15;;;;;;;0.50;0.30;;;13.40;99.90;;;;;;6336975;22;20017;-80
2024/02/02 12:11:47;;;;;;;1.58;0.30;;;13.90;99.90;;;;;;6263022;22;20011;-82
2024/02/02 12:14:24;;;;;;;0.20;0.20;;;14.20;99.90;;;;;;6310004;22;20092;-82
2024/02/02 12:16:50;;;;;;;0.40;0.30;;;14.10;99.90;;;;;;6309889;22;20014;-84
2024/02/02 12:19:16;;;;;;;0.20;0.20;;;13.90;99.90;;;;;;6309970;22;20006;-81
2024/02/02 12:21:47;;;;;;;1.30;0.45;;;13.80;99.90;;;;;;6278856;22;20517;-82
2024/02/02 12:24:14;;;;;;;0.30;0.30;;;13.80;99.90;;;;;;6278774;22;20013;-83
2024/02/02 12:26:41;;;;;;;1.77;0.70;;;13.80;99.90;;;;;;6278797;22;20007;-81
2024/02/02 12:29:07;;;;;;;0.60;0.45;;;13.70;99.90;;;;;;6278541;22;20019;-82
2024/02/02 12:31:33;;;;;;;0.30;0.20;;;13.50;99.90;;;;;;6278409;22;20022;-83
2024/02/02 12:33:59;;;;;;;2.38;0.60;;;13.30;99.90;;;;;;6278905;22;20015;-82
2024/02/02 12:36:26;;;;;;;1.95;1.10;;;13.10;99.90;;;;;;6278728;22;20023;-82
2024/02/02 12:38:53;;;;;;;3.70;0.85;;;12.90;99.90;;;;;;6278099;22;20014;-82
2024/02/02 12:41:18;;;;;;;2.72;0.93;;;12.70;99.90;;;;;;6278978;22;20013;-82
2024/02/02 12:43:47;;;;;;;1.25;1.10;;;12.60;99.90;;;;;;6279128;22;20086;-82
2024/02/02 12:46:13;;;;;;;1.83;1.25;;;12.50;99.90;;;;;;6281026;22;20370;-83
2024/02/02 12:48:40;;;;;;;1.30;1.20;;;12.50;99.90;;;;;;6280967;22;20018;-82
2024/02/02 12:51:06;;;;;;;1.25;1.15;;;12.50;99.90;;;;;;6279721;22;20431;-83
2024/02/02 12:53:33;;;;;;;0.70;0.68;;;12.50;99.90;;;;;;6280423;22;20003;-82
2024/02/02 12:56:00;;;;;;;1.70;0.90;;;12.40;99.90;;;;;;6280348;22;20007;-83
2024/02/02 12:58:26;;;;;;;1.70;1.20;;;12.40;99.90;;;;;;6280090;22;20365;-82
2024/02/02 13:00:52;;;;;;;3.00;1.67;;;12.40;99.90;;;;;;6307746;22;20010;-81
2024/02/02 13:03:19;;;;;;;1.40;1.30;;;12.30;99.90;;;;;;6280736;22;20442;-82
2024/02/02 13:05:45;;;;;;;2.75;1.50;;;12.30;99.90;;;;;;6280731;22;20003;-83
2024/02/02 13:08:10;;;;;;;1.20;1.05;;;12.20;99.90;;;;;;6280727;22;20013;-81
2024/02/02 13:10:48;;;;;;;1.30;1.20;;;12.20;99.90;;;;;;6281214;22;20457;-82
2024/02/02 13:13:21;;;;;;;1.73;1.25;;;12.10;99.90;;;;;;6308309;22;20003;-82